Provincetown, MA

6:28 AM EDT on July 30, 2016 (GMT -0400)
North West (West End) | | Change Station

Elev 23 ft 42.05 °N, 70.20 °W | Updated 21 seconds ago

Fog
Fog
68.5 °F
Feels Like 68.5 °F
N
0.0
Wind Variable Wind from WSW
Gusts 0.0 mph

Today
High -- | Low -- °F
--% Chance of Precip.
Yesterday
High -- | Low -- °F
Precip. -- in
Pressure 29.96 in
Visibility 0.2 miles
Clouds Overcast 300 ft
Dew Point 68 °F
Humidity 99%
Rainfall 0.00 in
Snow Depth Not available.
5:32 AM 8:01 PM
Waning Crescent, 14% visible
METAR KPVC 300956Z AUTO 34003KT 1/4SM FG OVC003 19/19 A2996 RMK AO2 SLP146 T01940194
Pressure 29.96 in
Visibility 0.2 miles
Clouds Overcast 300 ft
Dew Point 68 °F
Humidity 99%
Rainfall 0.00 in
Snow Depth Not available.
5:32 AM 8:01 PM
Waning Crescent, 14% visible
METAR KPVC 300956Z AUTO 34003KT 1/4SM FG OVC003 19/19 A2996 RMK AO2 SLP146 T01940194

10-Day Weather Forecast

Almanac

Astronomy

Jul. 30, 2016 Rise Set
Actual Time
Civil Twilight
Nautical Twilight
Astronomical Twilight
Moon
Length of Visible Light
Length of Day
Tomorrow will be .
, % of the Moon is Illuminated

Today's Extremes

State Highs State Lows

Community

WunderPhotos

Upload Photos

1,928,530 photos uploaded!

WunderBlog® & News

Nearby

Air Quality

  Air Quality AQ Index Pollutant
Not available.

Snow Depth

Station Depth Elevation

Earthquake Activity

City Distance Mag. Time & Date
Minimum magnitude displayed is 2.5.

Coastal Water Temperatures

Place Temperature

Stations

Nearby Weather Stations

Station Location Temp. Windchill Dew Point Humidity Wind Precip. Elev Updated Type
                   

Watches & Warnings

There are currently no watches in effect.